createdAt,value
2018-05-06T00:01:01.153Z,1020
2018-05-06T00:02:03.884Z,1020.1
2018-05-06T00:03:06.325Z,1020
2018-05-06T00:04:08.770Z,1020.1
2018-05-06T00:05:11.234Z,1020.1
2018-05-06T00:06:13.967Z,1020.1
2018-05-06T00:07:16.429Z,1020.1
2018-05-06T00:08:18.868Z,1020.1
2018-05-06T00:09:21.317Z,1020.1
2018-05-06T00:10:24.054Z,1020.1
2018-05-06T00:11:26.890Z,1020.1
2018-05-06T00:12:29.344Z,1020.1
2018-05-06T00:13:31.789Z,1020.1
2018-05-06T00:14:34.622Z,1020.1
2018-05-06T00:15:37.350Z,1020.1
2018-05-06T00:16:39.796Z,1020.2
2018-05-06T00:17:42.923Z,1020.1
2018-05-06T00:18:45.669Z,1020.1
2018-05-06T00:19:48.114Z,1020.1
2018-05-06T00:20:50.547Z,1020.1
2018-05-06T00:21:52.997Z,1020.1
2018-05-06T00:22:55.441Z,1020.2
2018-05-06T00:23:57.913Z,1020.1
2018-05-06T00:25:00.351Z,1020.1
2018-05-06T00:26:03.186Z,1020.1
2018-05-06T00:27:05.645Z,1020.2
2018-05-06T00:28:08.090Z,1020.1
2018-05-06T00:29:10.824Z,1020.2
2018-05-06T00:30:13.269Z,1020.1
2018-05-06T00:31:15.723Z,1020.1
2018-05-06T00:32:18.161Z,1020.1
2018-05-06T00:33:20.614Z,1020.1
2018-05-06T00:34:23.043Z,1020.1
2018-05-06T00:35:25.495Z,1020.1
2018-05-06T00:36:27.924Z,1020.1
2018-05-06T00:37:30.775Z,1020.1
2018-05-06T00:38:33.221Z,1020.1
2018-05-06T00:39:35.669Z,1020.2
2018-05-06T00:40:38.122Z,1020.2
2018-05-06T00:41:40.568Z,1020.2
2018-05-06T00:42:43.020Z,1020.2
2018-05-06T00:43:45.473Z,1020.1
2018-05-06T00:44:48.198Z,1020.1
2018-05-06T00:45:51.048Z,1020.1
2018-05-06T00:46:53.500Z,1020.2
2018-05-06T00:47:56.524Z,1020.2
2018-05-06T00:48:58.961Z,1020.2
2018-05-06T00:50:01.706Z,1020.1
2018-05-06T00:51:04.557Z,1020.2
2018-05-06T00:52:07.014Z,1020.2
2018-05-06T00:53:09.451Z,1020.2
2018-05-06T00:54:11.888Z,1020.2
2018-05-06T00:55:14.338Z,1020.2
2018-05-06T00:56:17.078Z,1020.2
2018-05-06T00:57:19.899Z,1020.2
2018-05-06T00:58:22.351Z,1020.2
2018-05-06T00:59:24.786Z,1020.2
2018-05-06T01:00:27.503Z,1020.2
2018-05-06T01:01:29.953Z,1020.2
2018-05-06T01:02:32.412Z,1020.2
2018-05-06T01:03:35.531Z,1020.2
2018-05-06T01:04:37.979Z,1020.2
2018-05-06T01:05:40.431Z,1020.1
2018-05-06T01:06:43.166Z,1020.1
2018-05-06T01:07:45.614Z,1020.1
2018-05-06T01:08:48.052Z,1020
2018-05-06T01:09:50.786Z,1020
2018-05-06T01:10:53.233Z,1020
2018-05-06T01:11:55.670Z,1020
2018-05-06T01:12:58.100Z,1020
2018-05-06T01:14:00.855Z,1020
2018-05-06T01:15:03.301Z,1020
2018-05-06T01:16:05.740Z,1020
2018-05-06T01:17:08.218Z,1020
2018-05-06T01:18:10.634Z,1020
2018-05-06T01:19:13.085Z,1020.1
2018-05-06T01:20:15.536Z,1020.1
2018-05-06T01:21:17.982Z,1020.1
2018-05-06T01:22:20.430Z,1020.1
2018-05-06T01:23:22.876Z,1020.1
2018-05-06T01:24:25.649Z,1020.1
2018-05-06T01:25:28.454Z,1020.1
2018-05-06T01:26:30.911Z,1020.2
2018-05-06T01:27:33.341Z,1020.1
2018-05-06T01:28:35.781Z,1020.1
2018-05-06T01:29:38.501Z,1020.2
2018-05-06T01:30:40.940Z,1020.1
2018-05-06T01:31:43.376Z,1020.2
2018-05-06T01:32:45.826Z,1020.2
2018-05-06T01:33:48.271Z,1020.2
2018-05-06T01:34:50.702Z,1020.1
2018-05-06T01:35:53.158Z,1020.1
2018-05-06T01:36:55.889Z,1020.1
2018-05-06T01:37:58.319Z,1020.1
2018-05-06T01:39:00.759Z,1020.1
2018-05-06T01:40:03.194Z,1020.1
2018-05-06T01:41:06.006Z,1020.1
2018-05-06T01:42:08.835Z,1020
2018-05-06T01:43:11.260Z,1020.1
2018-05-06T01:44:13.708Z,1020
2018-05-06T01:45:16.150Z,1020.1
2018-05-06T01:46:18.592Z,1020.1
2018-05-06T01:47:21.027Z,1020.1
2018-05-06T01:48:23.470Z,1020.2
2018-05-06T01:49:25.910Z,1020.1
2018-05-06T01:50:28.344Z,1020.1
2018-05-06T01:51:30.789Z,1020.2
2018-05-06T01:52:33.224Z,1020.1
2018-05-06T01:53:35.675Z,1020.2
2018-05-06T01:54:38.114Z,1020.2
2018-05-06T01:55:40.548Z,1020.1
2018-05-06T01:56:42.988Z,1020.1
2018-05-06T01:57:45.437Z,1020.1
2018-05-06T01:58:47.866Z,1020.1
2018-05-06T01:59:50.327Z,1020.1
2018-05-06T02:00:52.866Z,1020.1
2018-05-06T02:01:56.665Z,1020
2018-05-06T02:02:59.116Z,1020
2018-05-06T02:04:01.574Z,1020.1
2018-05-06T02:05:04.009Z,1020.1
2018-05-06T02:06:06.777Z,1020
2018-05-06T02:07:09.504Z,1020.1
2018-05-06T02:08:11.928Z,1020
2018-05-06T02:09:14.365Z,1020
2018-05-06T02:10:16.801Z,1020
2018-05-06T02:11:19.234Z,1020
2018-05-06T02:12:21.673Z,1020
2018-05-06T02:13:24.398Z,1020
2018-05-06T02:14:26.856Z,1020
2018-05-06T02:15:29.293Z,1020
2018-05-06T02:16:31.730Z,1020
2018-05-06T02:17:34.169Z,1020
2018-05-06T02:18:36.604Z,1020
2018-05-06T02:19:39.042Z,1020
2018-05-06T02:20:41.472Z,1020
2018-05-06T02:21:43.905Z,1020
2018-05-06T02:22:46.354Z,1020
2018-05-06T02:23:48.793Z,1020
2018-05-06T02:24:51.225Z,1020
2018-05-06T02:25:53.662Z,1020
2018-05-06T02:26:56.388Z,1020
2018-05-06T02:27:59.220Z,1020
2018-05-06T02:29:01.657Z,1020.1
2018-05-06T02:30:04.371Z,1020
2018-05-06T02:31:06.807Z,1020
2018-05-06T02:32:09.537Z,1020
2018-05-06T02:33:11.960Z,1020
2018-05-06T02:34:14.779Z,1020
2018-05-06T02:35:17.215Z,1020
2018-05-06T02:36:19.647Z,1020
2018-05-06T02:37:22.947Z,1020
2018-05-06T02:38:25.684Z,1020
2018-05-06T02:39:28.987Z,1020.1
2018-05-06T02:40:31.428Z,1020
2018-05-06T02:41:33.870Z,1020
2018-05-06T02:42:37.275Z,1020
2018-05-06T02:43:39.725Z,1020
2018-05-06T02:44:42.434Z,1020
2018-05-06T02:45:45.569Z,1020
2018-05-06T02:46:48.008Z,1020
2018-05-06T02:47:50.448Z,1020
2018-05-06T02:48:53.187Z,1020
2018-05-06T02:49:55.633Z,1020
2018-05-06T02:50:58.087Z,1020
2018-05-06T02:52:00.517Z,1020
2018-05-06T02:53:03.642Z,1020
2018-05-06T02:54:06.087Z,1020.1
2018-05-06T02:55:08.525Z,1020
2018-05-06T02:56:10.949Z,1020
2018-05-06T02:57:13.390Z,1020.1
2018-05-06T02:58:16.105Z,1020.1
2018-05-06T02:59:18.933Z,1020
2018-05-06T03:00:21.362Z,1020
2018-05-06T03:01:24.083Z,1020
2018-05-06T03:02:26.515Z,1020
2018-05-06T03:03:28.961Z,1020
2018-05-06T03:04:31.777Z,1020
2018-05-06T03:05:34.215Z,1020
2018-05-06T03:06:36.664Z,1020
2018-05-06T03:07:39.082Z,1020
2018-05-06T03:08:41.515Z,1020
2018-05-06T03:09:43.950Z,1019.9
2018-05-06T03:10:46.382Z,1019.9
2018-05-06T03:11:49.417Z,1019.9
2018-05-06T03:12:52.132Z,1019.9
2018-05-06T03:13:54.564Z,1019.9
2018-05-06T03:14:57.011Z,1019.9
2018-05-06T03:15:59.462Z,1019.9
2018-05-06T03:17:02.185Z,1019.9
2018-05-06T03:18:04.621Z,1019.9
2018-05-06T03:19:07.490Z,1020
2018-05-06T03:20:09.864Z,1019.9
2018-05-06T03:21:12.303Z,1019.9
2018-05-06T03:22:14.732Z,1019.9
2018-05-06T03:23:17.165Z,1020
2018-05-06T03:24:19.602Z,1020
2018-05-06T03:25:22.327Z,1020
2018-05-06T03:26:24.764Z,1020
2018-05-06T03:27:27.208Z,1020
2018-05-06T03:28:29.929Z,1020
2018-05-06T03:29:32.368Z,1019.9
2018-05-06T03:30:35.092Z,1019.9
2018-05-06T03:31:38.119Z,1019.9
2018-05-06T03:32:40.848Z,1019.9
2018-05-06T03:33:43.289Z,1019.9
2018-05-06T03:34:45.722Z,1019.9
2018-05-06T03:35:48.158Z,1019.9
2018-05-06T03:36:50.587Z,1019.9
2018-05-06T03:37:53.022Z,1019.8
2018-05-06T03:38:55.738Z,1019.9
2018-05-06T03:39:58.169Z,1019.9
2018-05-06T03:41:00.625Z,1019.9
2018-05-06T03:42:03.343Z,1019.9
2018-05-06T03:43:06.172Z,1019.9
2018-05-06T03:44:08.613Z,1019.9
2018-05-06T03:45:11.055Z,1019.9
2018-05-06T03:46:13.496Z,1020
2018-05-06T03:47:15.933Z,1020
2018-05-06T03:48:18.361Z,1020
2018-05-06T03:49:20.797Z,1020
2018-05-06T03:50:23.235Z,1020
2018-05-06T03:51:25.973Z,1020
2018-05-06T03:52:28.402Z,1020
2018-05-06T03:53:30.843Z,1020.1
2018-05-06T03:54:33.286Z,1020
2018-05-06T03:55:35.748Z,1020
2018-05-06T03:56:38.161Z,1020
2018-05-06T03:57:40.600Z,1020
2018-05-06T03:58:43.034Z,1020
2018-05-06T03:59:45.464Z,1020
2018-05-06T04:00:48.204Z,1020
2018-05-06T04:01:50.912Z,1020
2018-05-06T04:02:53.668Z,1019.9
2018-05-06T04:03:56.086Z,1020
2018-05-06T04:04:58.535Z,1020
2018-05-06T04:06:01.367Z,1020
2018-05-06T04:07:03.789Z,1020
2018-05-06T04:08:06.228Z,1020
2018-05-06T04:09:08.660Z,1020
2018-05-06T04:10:11.101Z,1020
2018-05-06T04:11:13.541Z,1020
2018-05-06T04:12:15.970Z,1020.1
2018-05-06T04:13:18.408Z,1020.1
2018-05-06T04:14:20.865Z,1020.2
2018-05-06T04:15:23.294Z,1020.2
2018-05-06T04:16:25.726Z,1020.2
2018-05-06T04:17:28.469Z,1020.2
2018-05-06T04:18:30.909Z,1020.2
2018-05-06T04:19:33.907Z,1020.2
2018-05-06T04:20:36.340Z,1020.2
2018-05-06T04:21:38.780Z,1020.2
2018-05-06T04:22:41.500Z,1020.2
2018-05-06T04:23:43.938Z,1020.2
2018-05-06T04:24:46.378Z,1020.1
2018-05-06T04:25:49.125Z,1020.2
2018-05-06T04:26:51.643Z,1020.1
2018-05-06T04:27:54.013Z,1020.1
2018-05-06T04:28:56.429Z,1020.2
2018-05-06T04:29:59.152Z,1020.2
2018-05-06T04:31:01.596Z,1020.2
2018-05-06T04:32:04.034Z,1020.1
2018-05-06T04:33:06.475Z,1020.2
2018-05-06T04:34:08.911Z,1020.2
2018-05-06T04:35:11.348Z,1020.2
2018-05-06T04:36:13.788Z,1020.2
2018-05-06T04:37:16.510Z,1020.2
2018-05-06T04:38:18.932Z,1020.3
2018-05-06T04:39:21.381Z,1020.2
2018-05-06T04:40:23.818Z,1020.3
2018-05-06T04:41:26.253Z,1020.2
2018-05-06T04:42:28.700Z,1020.2
2018-05-06T04:43:31.135Z,1020.3
2018-05-06T04:44:33.572Z,1020.3
2018-05-06T04:45:36.314Z,1020.2
2018-05-06T04:46:38.746Z,1020.2
2018-05-06T04:47:41.468Z,1020.2
2018-05-06T04:48:44.185Z,1020.2
2018-05-06T04:49:46.628Z,1020.2
2018-05-06T04:50:49.379Z,1020.2
2018-05-06T04:51:51.831Z,1020.2
2018-05-06T04:52:54.533Z,1020.2
2018-05-06T04:53:56.970Z,1020.1
2018-05-06T04:54:59.705Z,1020.2
2018-05-06T04:56:02.436Z,1020.2
2018-05-06T04:57:05.160Z,1020.2
2018-05-06T04:58:07.595Z,1020.2
2018-05-06T04:59:10.032Z,1020.2
2018-05-06T05:00:12.483Z,1020.2
2018-05-06T05:01:14.924Z,1020.2
2018-05-06T05:02:17.354Z,1020.2
2018-05-06T05:03:20.112Z,1020.2
2018-05-06T05:04:22.538Z,1020.2
2018-05-06T05:05:24.984Z,1020.1
2018-05-06T05:06:27.427Z,1020.2
2018-05-06T05:07:30.540Z,1020.2
2018-05-06T05:08:32.983Z,1020.1
2018-05-06T05:09:35.509Z,1020.2
2018-05-06T05:10:37.855Z,1020.2
2018-05-06T05:11:40.314Z,1020.2
2018-05-06T05:12:42.737Z,1020.2
2018-05-06T05:13:45.179Z,1020.1
2018-05-06T05:14:47.620Z,1020.2
2018-05-06T05:15:50.414Z,1020.2
2018-05-06T05:16:52.788Z,1020.2
2018-05-06T05:17:55.231Z,1020.2
2018-05-06T05:18:57.672Z,1020.2
2018-05-06T05:20:00.120Z,1020.2
2018-05-06T05:21:03.128Z,1020.2
2018-05-06T05:22:05.572Z,1020.3
2018-05-06T05:23:08.005Z,1020.3
2018-05-06T05:24:10.437Z,1020.2
2018-05-06T05:25:12.874Z,1020.3
2018-05-06T05:26:15.314Z,1020.2
2018-05-06T05:27:17.741Z,1020.3
2018-05-06T05:28:20.474Z,1020.2
2018-05-06T05:29:22.910Z,1020.2
2018-05-06T05:30:25.347Z,1020.2
2018-05-06T05:31:27.789Z,1020.2
2018-05-06T05:32:30.615Z,1020.2
2018-05-06T05:33:33.064Z,1020.3
2018-05-06T05:34:35.506Z,1020.3
2018-05-06T05:35:38.331Z,1020.3
2018-05-06T05:36:40.769Z,1020.3
2018-05-06T05:37:43.218Z,1020.3
2018-05-06T05:38:45.654Z,1020.3
2018-05-06T05:39:48.084Z,1020.3
2018-05-06T05:40:50.523Z,1020.3
2018-05-06T05:41:53.244Z,1020.3
2018-05-06T05:42:55.682Z,1020.3
2018-05-06T05:43:58.419Z,1020.3
2018-05-06T05:45:01.124Z,1020.3
2018-05-06T05:46:03.566Z,1020.3
2018-05-06T05:47:06.018Z,1020.3
2018-05-06T05:48:08.736Z,1020.3
2018-05-06T05:49:11.173Z,1020.3
2018-05-06T05:50:13.908Z,1020.3
2018-05-06T05:51:16.354Z,1020.3
2018-05-06T05:52:18.782Z,1020.3
2018-05-06T05:53:21.217Z,1020.3
2018-05-06T05:54:23.656Z,1020.3
2018-05-06T05:55:26.094Z,1020.3
2018-05-06T05:56:28.534Z,1020.4
2018-05-06T05:57:30.977Z,1020.3
2018-05-06T05:58:33.415Z,1020.4
2018-05-06T05:59:36.443Z,1020.4
2018-05-06T06:00:38.883Z,1020.4
2018-05-06T06:01:41.612Z,1020.4
2018-05-06T06:02:44.060Z,1020.4
2018-05-06T06:03:46.883Z,1020.4
2018-05-06T06:04:49.323Z,1020.4
2018-05-06T06:05:51.766Z,1020.4
2018-05-06T06:06:54.484Z,1020.4
2018-05-06T06:07:56.925Z,1020.5
2018-05-06T06:08:59.361Z,1020.4
2018-05-06T06:10:01.790Z,1020.5
2018-05-06T06:11:04.640Z,1020.4
2018-05-06T06:12:07.466Z,1020.4
2018-05-06T06:13:09.904Z,1020.4
2018-05-06T06:14:12.344Z,1020.4
2018-05-06T06:15:14.789Z,1020.4
2018-05-06T06:16:17.227Z,1020.4
2018-05-06T06:17:19.667Z,1020.4
2018-05-06T06:18:22.117Z,1020.4
2018-05-06T06:19:24.552Z,1020.4
2018-05-06T06:20:27.292Z,1020.4
2018-05-06T06:21:29.737Z,1020.5
2018-05-06T06:22:32.177Z,1020.5
2018-05-06T06:23:34.612Z,1020.5
2018-05-06T06:24:37.119Z,1020.5
2018-05-06T06:25:39.494Z,1020.5
2018-05-06T06:26:41.942Z,1020.5
2018-05-06T06:27:44.390Z,1020.5
2018-05-06T06:28:46.829Z,1020.5
2018-05-06T06:29:49.265Z,1020.5
2018-05-06T06:30:51.709Z,1020.5
2018-05-06T06:31:54.142Z,1020.5
2018-05-06T06:32:56.607Z,1020.5
2018-05-06T06:33:59.657Z,1020.6
2018-05-06T06:35:02.085Z,1020.6
2018-05-06T06:36:04.534Z,1020.7
2018-05-06T06:37:06.973Z,1020.7
2018-05-06T06:38:09.409Z,1020.7
2018-05-06T06:39:11.853Z,1020.7
2018-05-06T06:40:14.296Z,1020.7
2018-05-06T06:41:16.742Z,1020.7
2018-05-06T06:42:19.188Z,1020.8
2018-05-06T06:43:21.926Z,1020.8
2018-05-06T06:44:24.656Z,1020.8
2018-05-06T06:45:27.089Z,1020.8
2018-05-06T06:46:29.530Z,1020.7
2018-05-06T06:47:32.360Z,1020.8
2018-05-06T06:48:34.802Z,1020.8
2018-05-06T06:49:37.245Z,1020.8
2018-05-06T06:50:39.693Z,1020.8
2018-05-06T06:51:42.126Z,1020.8
2018-05-06T06:52:44.582Z,1020.8
2018-05-06T06:53:47.024Z,1020.8
2018-05-06T06:54:49.466Z,1020.8
2018-05-06T06:55:52.489Z,1020.8
2018-05-06T06:56:54.927Z,1020.8
2018-05-06T06:57:57.369Z,1020.8
2018-05-06T06:59:00.116Z,1020.9
2018-05-06T07:00:02.551Z,1020.9
2018-05-06T07:01:04.994Z,1020.9
2018-05-06T07:02:07.437Z,1020.9
2018-05-06T07:03:09.884Z,1020.9
2018-05-06T07:04:12.326Z,1020.9
2018-05-06T07:05:14.773Z,1020.9
2018-05-06T07:06:17.591Z,1020.8
2018-05-06T07:07:20.044Z,1020.8
2018-05-06T07:08:22.483Z,1020.8
2018-05-06T07:09:25.640Z,1020.8
2018-05-06T07:10:28.479Z,1020.8
2018-05-06T07:11:31.213Z,1020.8
2018-05-06T07:12:33.951Z,1020.8
2018-05-06T07:13:36.400Z,1020.8
2018-05-06T07:14:38.842Z,1020.8
2018-05-06T07:15:41.280Z,1020.8
2018-05-06T07:16:43.711Z,1020.8
2018-05-06T07:17:46.171Z,1020.8
2018-05-06T07:18:48.615Z,1020.8
2018-05-06T07:19:51.338Z,1020.8
2018-05-06T07:20:53.790Z,1020.7
2018-05-06T07:21:56.244Z,1020.7
2018-05-06T07:22:58.686Z,1020.7
2018-05-06T07:24:01.142Z,1020.7
2018-05-06T07:25:03.861Z,1020.7
2018-05-06T07:26:06.589Z,1020.7
2018-05-06T07:27:09.316Z,1020.7
2018-05-06T07:28:11.756Z,1020.7
2018-05-06T07:29:14.205Z,1020.7
2018-05-06T07:30:16.984Z,1020.7
2018-05-06T07:31:19.714Z,1020.7
2018-05-06T07:32:22.543Z,1020.6
2018-05-06T07:33:24.980Z,1020.6
2018-05-06T07:34:27.813Z,1020.6
2018-05-06T07:35:30.255Z,1020.7
2018-05-06T07:36:32.703Z,1020.6
2018-05-06T07:37:35.154Z,1020.7
2018-05-06T07:38:37.601Z,1020.6
2018-05-06T07:39:40.029Z,1020.6
2018-05-06T07:40:42.473Z,1020.5
2018-05-06T07:41:44.933Z,1020.6
2018-05-06T07:42:47.367Z,1020.6
2018-05-06T07:43:49.811Z,1020.6
2018-05-06T07:44:52.562Z,1020.6
2018-05-06T07:45:55.003Z,1020.6
2018-05-06T07:46:57.504Z,1020.6
2018-05-06T07:48:00.233Z,1020.6
2018-05-06T07:49:03.044Z,1020.6
2018-05-06T07:50:05.398Z,1020.6
2018-05-06T07:51:07.829Z,1020.5
2018-05-06T07:52:10.565Z,1020.5
2018-05-06T07:53:13.012Z,1020.5
2018-05-06T07:54:15.454Z,1020.5
2018-05-06T07:55:18.183Z,1020.5
2018-05-06T07:56:20.938Z,1020.5
2018-05-06T07:57:23.409Z,1020.5
2018-05-06T07:58:26.152Z,1020.5
2018-05-06T07:59:29.184Z,1020.5
2018-05-06T08:00:31.622Z,1020.5
2018-05-06T08:01:34.065Z,1020.5
2018-05-06T08:02:36.502Z,1020.5
2018-05-06T08:03:38.958Z,1020.5
2018-05-06T08:04:41.689Z,1020.5
2018-05-06T08:05:44.120Z,1020.5
2018-05-06T08:06:46.574Z,1020.4
2018-05-06T08:07:49.026Z,1020.5
2018-05-06T08:08:51.475Z,1020.5
2018-05-06T08:09:54.221Z,1020.5
2018-05-06T08:10:57.326Z,1020.5
2018-05-06T08:11:59.503Z,1020.5
2018-05-06T08:13:01.973Z,1020.5
2018-05-06T08:14:04.708Z,1020.5
2018-05-06T08:15:07.145Z,1020.5
2018-05-06T08:16:09.596Z,1020.5
2018-05-06T08:17:12.043Z,1020.5
2018-05-06T08:18:14.486Z,1020.4
2018-05-06T08:19:16.963Z,1020.4
2018-05-06T08:20:19.385Z,1020.4
2018-05-06T08:21:21.829Z,1020.4
2018-05-06T08:22:24.263Z,1020.4
2018-05-06T08:23:27.003Z,1020.4
2018-05-06T08:24:29.447Z,1020.5
2018-05-06T08:25:31.890Z,1020.4
2018-05-06T08:26:34.630Z,1020.5
2018-05-06T08:27:37.071Z,1020.4
2018-05-06T08:28:39.524Z,1020.5
2018-05-06T08:29:42.261Z,1020.5
2018-05-06T08:30:44.812Z,1020.5
2018-05-06T08:31:47.263Z,1020.5
2018-05-06T08:32:49.700Z,1020.5
2018-05-06T08:33:52.461Z,1020.4
2018-05-06T08:34:55.202Z,1020.4
2018-05-06T08:35:57.652Z,1020.5
2018-05-06T08:37:00.091Z,1020.5
2018-05-06T08:38:02.830Z,1020.4
2018-05-06T08:39:05.287Z,1020.5
2018-05-06T08:40:08.021Z,1020.5
2018-05-06T08:41:10.467Z,1020.5
2018-05-06T08:42:12.907Z,1020.5
2018-05-06T08:43:15.357Z,1020.5
2018-05-06T08:44:17.811Z,1020.5
2018-05-06T08:45:20.258Z,1020.5
2018-05-06T08:46:22.717Z,1020.5
2018-05-06T08:47:25.159Z,1020.5
2018-05-06T08:48:27.594Z,1020.5
2018-05-06T08:49:30.039Z,1020.6
2018-05-06T08:50:32.487Z,1020.6
2018-05-06T08:51:34.986Z,1020.5
2018-05-06T08:52:38.630Z,1020.6
2018-05-06T08:53:45.790Z,1020.6
2018-05-06T08:54:56.201Z,1020.5
2018-05-06T08:55:58.774Z,1020.5
2018-05-06T08:57:01.979Z,1020.5
2018-05-06T08:58:04.475Z,1020.5
2018-05-06T08:59:07.695Z,1020.5
2018-05-06T09:00:10.562Z,1020.5
2018-05-06T09:01:17.154Z,1020.5
2018-05-06T09:02:38.523Z,1020.5
2018-05-06T09:03:57.243Z,1020.5
2018-05-06T09:05:18.533Z,1020.5
2018-05-06T09:06:33.679Z,1020.4
2018-05-06T09:07:50.435Z,1020.4
2018-05-06T09:09:09.599Z,1020.4
2018-05-06T09:10:27.380Z,1020.4
2018-05-06T09:11:48.545Z,1020.4
2018-05-06T09:13:09.992Z,1020.4
2018-05-06T09:14:27.467Z,1020.4
2018-05-06T09:15:44.788Z,1020.4
2018-05-06T09:17:05.487Z,1020.4
2018-05-06T09:18:19.012Z,1020.3
2018-05-06T13:41:09.801Z,1017.9
2018-05-06T13:42:11.857Z,1017.9
2018-05-06T13:43:13.900Z,1017.9
2018-05-06T13:44:15.946Z,1017.9
2018-05-06T13:45:18.014Z,1017.9
2018-05-06T13:46:20.445Z,1017.9
2018-05-06T13:47:22.652Z,1017.9
2018-05-06T13:48:25.250Z,1017.8
2018-05-06T13:49:27.287Z,1017.9
2018-05-06T13:50:30.184Z,1017.9
2018-05-06T13:51:32.740Z,1017.9
2018-05-06T13:52:34.924Z,1017.9
2018-05-06T13:53:36.979Z,1017.9
2018-05-06T13:54:39.161Z,1017.9
2018-05-06T13:55:41.432Z,1017.9
2018-05-06T13:56:43.451Z,1017.8
2018-05-06T13:57:45.553Z,1017.8
2018-05-06T13:58:47.616Z,1017.9
2018-05-06T13:59:49.666Z,1017.9
2018-05-06T14:00:51.711Z,1017.8
2018-05-06T14:01:54.149Z,1017.8
2018-05-06T14:02:56.205Z,1017.8
2018-05-06T14:03:58.246Z,1017.8
2018-05-06T14:05:00.305Z,1017.8
2018-05-06T14:06:02.358Z,1017.8
2018-05-06T14:07:04.415Z,1017.8
2018-05-06T14:08:06.470Z,1017.8
2018-05-06T14:09:08.911Z,1017.8
2018-05-06T14:10:11.363Z,1017.8
2018-05-06T14:11:13.409Z,1017.8
2018-05-06T14:12:15.753Z,1017.9
2018-05-06T14:13:18.497Z,1017.8
2018-05-06T14:14:20.571Z,1017.9
2018-05-06T14:15:22.647Z,1017.8
2018-05-06T14:16:24.748Z,1017.8
2018-05-06T14:17:26.984Z,1017.8
2018-05-06T14:18:29.151Z,1017.8
2018-05-06T14:19:31.529Z,1017.8
2018-05-06T14:20:33.584Z,1017.8
2018-05-06T14:21:35.644Z,1017.8
2018-05-06T14:22:38.091Z,1017.9
2018-05-06T14:23:40.156Z,1017.8
2018-05-06T14:24:42.214Z,1017.8
2018-05-06T14:25:44.283Z,1017.8
2018-05-06T14:26:46.739Z,1017.8
2018-05-06T14:27:49.387Z,1017.8
2018-05-06T14:28:51.455Z,1017.7
2018-05-06T14:29:53.815Z,1017.7
2018-05-06T14:30:56.459Z,1017.7
2018-05-06T14:31:58.515Z,1017.8
2018-05-06T14:33:00.580Z,1017.7
2018-05-06T14:34:02.650Z,1017.7
2018-05-06T14:35:04.715Z,1017.7
2018-05-06T14:36:06.784Z,1017.7
2018-05-06T14:37:08.855Z,1017.7
2018-05-06T14:38:10.923Z,1017.7
2018-05-06T14:39:13.274Z,1017.6
2018-05-06T14:40:15.346Z,1017.7
2018-05-06T14:41:17.816Z,1017.7
2018-05-06T14:42:19.881Z,1017.7
2018-05-06T14:43:21.954Z,1017.6
2018-05-06T14:44:24.014Z,1017.6
2018-05-06T14:45:26.085Z,1017.6
2018-05-06T14:46:28.145Z,1017.6
2018-05-06T14:47:30.210Z,1017.6
2018-05-06T14:48:32.710Z,1017.6
2018-05-06T14:49:35.166Z,1017.6
2018-05-06T14:50:37.228Z,1017.6
2018-05-06T14:51:39.290Z,1017.7
2018-05-06T14:52:41.636Z,1017.6
2018-05-06T14:53:43.712Z,1017.6
2018-05-06T14:54:45.769Z,1017.6
2018-05-06T14:55:47.879Z,1017.6
2018-05-06T14:56:49.893Z,1017.6
2018-05-06T14:57:51.963Z,1017.6
2018-05-06T14:58:54.020Z,1017.5
2018-05-06T14:59:56.077Z,1017.6
2018-05-06T15:00:58.141Z,1017.6
2018-05-06T15:02:00.202Z,1017.6
2018-05-06T15:03:02.280Z,1017.5
2018-05-06T15:04:04.346Z,1017.5
2018-05-06T15:05:06.401Z,1017.5
2018-05-06T15:06:08.480Z,1017.5
2018-05-06T15:07:10.548Z,1017.5
2018-05-06T15:08:12.891Z,1017.5
2018-05-06T15:09:14.957Z,1017.5
2018-05-06T15:10:17.025Z,1017.5
2018-05-06T15:11:19.103Z,1017.5
2018-05-06T15:12:21.157Z,1017.5
2018-05-06T15:13:23.230Z,1017.5
2018-05-06T15:14:25.315Z,1017.5
2018-05-06T15:15:27.378Z,1017.5
2018-05-06T15:16:29.449Z,1017.5
2018-05-06T15:17:31.519Z,1017.4
2018-05-06T15:18:33.621Z,1017.4
2018-05-06T15:19:36.029Z,1017.4
2018-05-06T15:20:38.375Z,1017.5
2018-05-06T15:21:40.450Z,1017.5
2018-05-06T15:22:42.518Z,1017.5
2018-05-06T15:23:44.587Z,1017.5
2018-05-06T15:24:46.653Z,1017.4
2018-05-06T15:25:48.721Z,1017.4
2018-05-06T15:26:50.783Z,1017.5
2018-05-06T15:27:53.231Z,1017.4
2018-05-06T15:28:55.590Z,1017.4
2018-05-06T15:29:57.654Z,1017.4
2018-05-06T15:30:59.721Z,1017.4
2018-05-06T15:32:01.792Z,1017.4
2018-05-06T15:33:04.432Z,1017.4
2018-05-06T15:34:06.512Z,1017.3
2018-05-06T15:35:08.578Z,1017.4
2018-05-06T15:36:10.645Z,1017.3
2018-05-06T15:37:12.720Z,1017.4
2018-05-06T15:38:14.785Z,1017.3
2018-05-06T15:39:16.849Z,1017.3
2018-05-06T15:40:18.910Z,1017.3
2018-05-06T15:41:21.002Z,1017.3
2018-05-06T15:42:23.052Z,1017.3
2018-05-06T15:43:25.514Z,1017.3
2018-05-06T15:44:27.573Z,1017.3
2018-05-06T15:45:29.934Z,1017.3
2018-05-06T15:46:32.379Z,1017.3
2018-05-06T15:47:34.449Z,1017.2
2018-05-06T15:48:36.528Z,1017.2
2018-05-06T15:49:38.601Z,1017.2
2018-05-06T15:50:40.955Z,1017.2
2018-05-06T15:51:43.026Z,1017.2
2018-05-06T15:52:45.089Z,1017.2
2018-05-06T15:53:47.162Z,1017.2
2018-05-06T15:54:49.223Z,1017.2
2018-05-06T15:55:51.305Z,1017.2
2018-05-06T15:56:53.376Z,1017.2
2018-05-06T15:57:55.447Z,1017.2
2018-05-06T15:58:57.518Z,1017.2
2018-05-06T15:59:59.868Z,1017.3
2018-05-06T16:01:01.941Z,1017.2
2018-05-06T16:02:04.333Z,1017.2
2018-05-06T16:03:06.713Z,1017.2
2018-05-06T16:04:08.757Z,1017.2
2018-05-06T16:05:11.210Z,1017.2
2018-05-06T16:06:13.286Z,1017.2
2018-05-06T16:07:15.360Z,1017.2
2018-05-06T16:08:17.415Z,1017.1
2018-05-06T16:09:19.501Z,1017.1
2018-05-06T16:10:21.565Z,1017.1
2018-05-06T16:11:23.625Z,1017.1
2018-05-06T16:12:25.996Z,1017.1
2018-05-06T16:13:28.070Z,1017.1
2018-05-06T16:14:30.135Z,1017.1
2018-05-06T16:15:32.220Z,1017.2
2018-05-06T16:16:34.270Z,1017.1
2018-05-06T16:17:36.347Z,1017.1
2018-05-06T16:18:38.410Z,1017.1
2018-05-06T16:19:40.470Z,1017.1
2018-05-06T16:20:42.544Z,1017.1
2018-05-06T16:21:44.613Z,1017.1
2018-05-06T16:22:46.679Z,1017.1
2018-05-06T16:23:48.740Z,1017.1
2018-05-06T16:24:51.108Z,1017.1
2018-05-06T16:25:53.174Z,1017.1
2018-05-06T16:26:55.239Z,1017
2018-05-06T16:27:57.311Z,1017
2018-05-06T16:28:59.663Z,1017
2018-05-06T16:30:02.305Z,1017
2018-05-06T16:31:04.665Z,1017
2018-05-06T16:32:06.732Z,1017
2018-05-06T16:33:08.826Z,1017
2018-05-06T16:34:10.880Z,1017
2018-05-06T16:35:12.939Z,1017
2018-05-06T16:36:15.012Z,1017
2018-05-06T16:37:17.092Z,1017
2018-05-06T16:38:19.151Z,1017
2018-05-06T16:39:21.217Z,1017
2018-05-06T16:40:23.280Z,1017
2018-05-06T16:41:25.349Z,1016.9
2018-05-06T16:42:27.412Z,1016.9
2018-05-06T16:43:29.468Z,1016.9
2018-05-06T16:44:31.546Z,1017
2018-05-06T16:45:33.608Z,1016.9
2018-05-06T16:46:35.674Z,1016.9
2018-05-06T16:47:37.751Z,1016.9
2018-05-06T16:48:40.201Z,1016.9
2018-05-06T16:49:42.560Z,1016.9
2018-05-06T16:50:44.634Z,1016.9
2018-05-06T16:51:46.696Z,1017
2018-05-06T16:52:48.771Z,1016.9
2018-05-06T16:53:50.840Z,1016.9
2018-05-06T16:54:52.906Z,1016.9
2018-05-06T16:55:54.986Z,1017
2018-05-06T16:56:57.035Z,1016.9
2018-05-06T16:57:59.479Z,1017
2018-05-06T16:59:01.560Z,1017
2018-05-06T17:00:03.614Z,1016.9
2018-05-06T17:01:05.685Z,1017
2018-05-06T17:02:07.751Z,1016.9
2018-05-06T17:03:09.928Z,1017
2018-05-06T17:04:12.272Z,1016.9
2018-05-06T17:05:14.331Z,1016.9
2018-05-06T17:06:16.408Z,1016.9
2018-05-06T17:07:18.857Z,1016.9
2018-05-06T17:08:20.913Z,1016.9
2018-05-06T17:09:23.012Z,1016.9
2018-05-06T17:10:25.073Z,1016.9
2018-05-06T17:11:27.132Z,1017
2018-05-06T17:12:29.193Z,1017
2018-05-06T17:13:31.271Z,1017
2018-05-06T17:14:33.660Z,1017
2018-05-06T17:15:36.118Z,1017
2018-05-06T17:16:38.377Z,1017
2018-05-06T17:17:40.834Z,1016.9
2018-05-06T17:18:42.897Z,1016.9
2018-05-06T17:19:45.011Z,1016.9
2018-05-06T17:20:47.037Z,1016.9
2018-05-06T17:21:49.777Z,1016.9
2018-05-06T17:22:51.836Z,1016.9
2018-05-06T17:23:53.902Z,1016.9
2018-05-06T17:24:55.979Z,1016.9
2018-05-06T17:25:58.042Z,1016.9
2018-05-06T17:27:00.096Z,1016.9
2018-05-06T17:28:02.450Z,1017
2018-05-06T17:29:04.509Z,1017
2018-05-06T17:30:06.582Z,1017
2018-05-06T17:31:08.946Z,1016.9
2018-05-06T17:32:10.987Z,1016.9
2018-05-06T17:33:13.346Z,1017